Time;durP1;ratioP1;P1;durP2;ratioP2;P2;SDS_P1;SDS_P2;PMS_P1;PMS_P2;Temp;Humidity;BMP_temperature;BMP_pressure;BME280_temperature;BME280_humidity;BME280_pressure;Samples;Min_cycle;Max_cycle;Signal;HPM_P1;HPM_P2
2022/07/10 00:00:07;;;;;;;6.90;2.40;;;16.60;99.90;;;;;;5037013;28;20404;-75
2022/07/10 00:02:33;;;;;;;5.22;2.10;;;16.60;99.90;;;;;;5027797;28;20512;-75
2022/07/10 00:04:58;;;;;;;4.93;2.00;;;16.60;99.90;;;;;;5029913;28;20033;-75
2022/07/10 00:07:27;;;;;;;5.53;2.15;;;16.60;99.90;;;;;;5027170;28;20069;-75
2022/07/10 00:09:53;;;;;;;3.25;2.03;;;16.60;99.90;;;;;;5025417;28;20052;-75
2022/07/10 00:12:18;;;;;;;5.47;1.80;;;16.70;99.90;;;;;;5028581;28;20037;-75
2022/07/10 00:14:44;;;;;;;4.82;2.00;;;16.70;99.90;;;;;;5028490;28;20033;-75
2022/07/10 00:17:09;;;;;;;5.45;2.00;;;16.70;99.90;;;;;;5042878;28;20068;-75
2022/07/10 00:19:35;;;;;;;8.15;2.00;;;16.70;99.90;;;;;;5040275;28;20438;-75
2022/07/10 00:22:01;;;;;;;5.93;1.85;;;16.70;99.90;;;;;;5051311;28;20094;-75
2022/07/10 00:24:26;;;;;;;3.75;2.20;;;16.70;99.90;;;;;;5028639;28;20041;-74
2022/07/10 00:26:52;;;;;;;6.32;2.20;;;16.60;99.90;;;;;;5025637;28;20045;-75
2022/07/10 00:29:17;;;;;;;4.78;2.20;;;16.60;99.90;;;;;;5022163;28;20622;-75
2022/07/10 00:31:43;;;;;;;7.13;2.17;;;16.60;99.90;;;;;;5030734;28;20141;-75
2022/07/10 00:34:09;;;;;;;4.60;2.08;;;16.60;99.90;;;;;;5028066;28;20090;-76
2022/07/10 00:36:34;;;;;;;4.75;1.80;;;16.60;99.90;;;;;;5020225;28;20037;-75
2022/07/10 00:39:00;;;;;;;4.00;1.83;;;16.60;99.90;;;;;;5032281;28;20041;-75
2022/07/10 00:41:25;;;;;;;6.68;2.53;;;16.60;99.90;;;;;;5028388;28;20091;-75
2022/07/10 00:44:02;;;;;;;3.70;1.90;;;16.60;99.90;;;;;;5026254;28;20103;-75
2022/07/10 00:46:29;;;;;;;6.97;1.90;;;16.60;99.90;;;;;;5029583;28;20088;-75
2022/07/10 00:48:55;;;;;;;5.70;1.90;;;16.50;99.90;;;;;;5025823;28;20068;-75
2022/07/10 00:51:24;;;;;;;5.38;1.95;;;16.50;99.90;;;;;;5026940;28;20148;-75
2022/07/10 00:53:49;;;;;;;6.28;2.40;;;16.50;99.90;;;;;;5021066;28;20048;-74
2022/07/10 00:56:24;;;;;;;5.45;1.88;;;16.50;99.90;;;;;;5027439;28;20045;-75
2022/07/10 00:58:50;;;;;;;6.80;1.90;;;16.60;99.90;;;;;;5023343;28;20064;-75
2022/07/10 01:01:16;;;;;;;7.40;2.40;;;16.50;99.90;;;;;;5028420;28;20473;-75
2022/07/10 01:03:45;;;;;;;7.50;2.00;;;16.50;99.90;;;;;;5029817;28;20037;-75
2022/07/10 01:06:11;;;;;;;6.53;2.13;;;16.40;99.90;;;;;;5026159;28;20425;-75
2022/07/10 01:08:37;;;;;;;4.28;2.00;;;16.40;99.90;;;;;;5036849;28;20502;-75
2022/07/10 01:11:03;;;;;;;4.78;2.05;;;16.40;99.90;;;;;;5033348;28;20053;-76
2022/07/10 01:13:29;;;;;;;5.32;1.90;;;16.40;99.90;;;;;;5035045;28;20554;-75
2022/07/10 01:15:55;;;;;;;6.82;2.20;;;16.40;99.90;;;;;;5027083;28;20041;-75
2022/07/10 01:18:21;;;;;;;8.27;2.15;;;16.40;99.90;;;;;;5024658;28;20396;-75
2022/07/10 01:20:57;;;;;;;6.10;1.90;;;16.30;99.90;;;;;;5028211;28;20073;-75
2022/07/10 01:23:23;;;;;;;5.32;2.00;;;16.40;99.90;;;;;;5022419;28;20036;-75
2022/07/10 01:25:50;;;;;;;4.75;2.08;;;16.30;99.90;;;;;;5025495;28;20041;-75
2022/07/10 01:28:20;;;;;;;5.50;1.90;;;16.30;99.90;;;;;;5025911;28;20084;-75
2022/07/10 01:30:47;;;;;;;7.07;1.90;;;16.40;99.90;;;;;;5053004;28;20068;-75
2022/07/10 01:33:13;;;;;;;8.05;2.10;;;16.40;99.90;;;;;;5017168;28;20110;-75
2022/07/10 01:35:39;;;;;;;5.03;1.90;;;16.30;99.90;;;;;;5028155;28;20044;-76
2022/07/10 01:38:05;;;;;;;5.28;2.05;;;16.40;99.90;;;;;;5032019;28;20500;-76
2022/07/10 01:40:31;;;;;;;6.03;1.90;;;16.30;99.90;;;;;;5034901;28;20061;-75
2022/07/10 01:42:57;;;;;;;5.78;2.00;;;16.30;99.90;;;;;;5058711;28;20064;-76
2022/07/10 01:45:23;;;;;;;5.28;1.98;;;16.30;99.90;;;;;;5020506;28;20127;-76
2022/07/10 01:47:49;;;;;;;6.38;2.00;;;16.30;99.90;;;;;;5029886;28;20489;-75
2022/07/10 01:50:14;;;;;;;4.55;1.90;;;16.40;99.90;;;;;;5029585;28;20072;-75
2022/07/10 01:52:40;;;;;;;5.75;2.00;;;16.30;99.90;;;;;;5032242;28;20041;-75
2022/07/10 01:55:07;;;;;;;6.90;2.50;;;16.30;99.90;;;;;;5036733;28;20484;-75
2022/07/10 01:57:32;;;;;;;5.78;2.33;;;16.30;99.90;;;;;;5029861;28;20042;-75
2022/07/10 01:59:58;;;;;;;5.70;2.10;;;16.30;99.90;;;;;;5038926;28;20432;-76
2022/07/10 02:02:24;;;;;;;7.03;2.15;;;16.30;99.90;;;;;;5026271;28;20049;-75
2022/07/10 02:04:49;;;;;;;7.82;2.25;;;16.40;99.90;;;;;;5023863;28;20367;-74
2022/07/10 02:07:18;;;;;;;6.05;1.77;;;16.30;99.90;;;;;;5031829;28;20041;-75
2022/07/10 02:09:45;;;;;;;5.13;1.83;;;16.40;99.90;;;;;;5027526;28;20041;-75
2022/07/10 02:12:13;;;;;;;5.32;2.03;;;16.30;99.90;;;;;;5034475;28;20052;-75
2022/07/10 02:14:39;;;;;;;9.07;2.15;;;16.40;99.90;;;;;;5033332;28;20032;-75
2022/07/10 02:17:06;;;;;;;5.35;2.38;;;16.40;99.90;;;;;;5024317;28;20046;-75
2022/07/10 02:19:32;;;;;;;5.50;2.10;;;16.40;99.90;;;;;;5030748;28;20041;-76
2022/07/10 02:21:58;;;;;;;4.22;1.98;;;16.40;99.90;;;;;;5028746;28;20128;-76
2022/07/10 02:24:23;;;;;;;4.47;2.08;;;16.40;99.90;;;;;;5029630;28;20408;-75
2022/07/10 02:26:52;;;;;;;6.05;2.20;;;16.40;99.90;;;;;;5030846;28;20057;-75
2022/07/10 02:29:18;;;;;;;5.93;2.40;;;16.40;99.90;;;;;;5034961;28;20060;-76
2022/07/10 02:31:44;;;;;;;6.70;2.25;;;16.40;99.90;;;;;;5024150;28;20113;-76
2022/07/10 02:34:14;;;;;;;6.18;2.22;;;16.40;99.90;;;;;;5023312;28;20042;-76
2022/07/10 02:36:40;;;;;;;4.22;2.17;;;16.30;99.90;;;;;;5031804;28;20045;-75
2022/07/10 02:39:06;;;;;;;5.25;1.92;;;16.30;99.90;;;;;;5036809;28;20547;-75
2022/07/10 02:41:32;;;;;;;5.68;2.15;;;16.30;99.90;;;;;;5029895;28;20042;-76
2022/07/10 02:43:58;;;;;;;7.80;2.22;;;16.20;99.90;;;;;;5031766;28;20428;-76
2022/07/10 02:46:24;;;;;;;6.32;2.40;;;16.20;99.90;;;;;;5028855;28;20045;-76
2022/07/10 02:48:50;;;;;;;7.25;2.28;;;16.10;99.90;;;;;;5029762;28;20029;-76
2022/07/10 02:51:16;;;;;;;6.45;2.30;;;16.10;99.90;;;;;;5029233;28;20481;-75
2022/07/10 02:53:42;;;;;;;8.48;2.45;;;16.10;99.90;;;;;;5033465;28;20037;-75
2022/07/10 02:56:07;;;;;;;6.82;2.15;;;16.00;99.90;;;;;;5033428;28;20042;-76
2022/07/10 02:58:33;;;;;;;7.75;2.40;;;16.00;99.90;;;;;;5030214;28;20041;-76
2022/07/10 03:01:00;;;;;;;4.85;2.30;;;16.00;99.90;;;;;;5036596;28;20124;-75
2022/07/10 03:03:26;;;;;;;8.38;2.30;;;16.00;99.90;;;;;;5035590;28;20037;-76
2022/07/10 03:05:54;;;;;;;5.40;2.38;;;16.00;99.90;;;;;;5025403;28;20096;-75
2022/07/10 03:08:20;;;;;;;5.47;2.45;;;16.00;99.90;;;;;;5026709;28;20403;-76
2022/07/10 03:10:45;;;;;;;7.45;2.80;;;16.00;99.90;;;;;;5029351;28;20037;-76
2022/07/10 03:13:11;;;;;;;8.77;2.63;;;16.00;99.90;;;;;;5030669;28;20047;-75
2022/07/10 03:15:37;;;;;;;9.68;2.88;;;15.90;99.90;;;;;;5029158;28;20041;-76
2022/07/10 03:18:02;;;;;;;10.25;2.70;;;15.80;99.90;;;;;;5045125;28;20443;-75
2022/07/10 03:20:28;;;;;;;9.55;2.53;;;15.90;99.90;;;;;;5036267;28;20052;-75
2022/07/10 03:22:56;;;;;;;10.18;3.08;;;15.90;99.90;;;;;;5028037;28;20041;-75
2022/07/10 03:25:22;;;;;;;6.15;2.58;;;15.90;99.90;;;;;;5027758;28;20426;-75
2022/07/10 03:27:47;;;;;;;7.72;2.80;;;15.80;99.90;;;;;;5025237;28;20042;-75
2022/07/10 03:30:13;;;;;;;6.50;2.53;;;15.80;99.90;;;;;;5024660;28;20050;-75
2022/07/10 03:32:39;;;;;;;7.10;2.70;;;15.90;99.90;;;;;;5022118;28;20569;-75
2022/07/10 03:35:04;;;;;;;6.65;2.85;;;15.80;99.90;;;;;;5019820;28;20041;-75
2022/07/10 03:37:30;;;;;;;6.50;2.83;;;15.80;99.90;;;;;;5032477;28;20042;-75
2022/07/10 03:39:56;;;;;;;6.72;2.80;;;15.80;99.90;;;;;;5040365;28;20393;-76
2022/07/10 03:42:21;;;;;;;10.10;2.47;;;15.70;99.90;;;;;;5034094;28;20051;-75
2022/07/10 03:44:47;;;;;;;9.48;3.00;;;15.80;99.90;;;;;;5019054;28;20099;-75
2022/07/10 03:47:13;;;;;;;5.97;2.40;;;;;;;;;;5019952;28;20489;-75
2022/07/10 03:49:42;;;;;;;7.53;2.88;;;;;;;;;;5027032;28;20442;-75
2022/07/10 03:52:08;;;;;;;3.92;2.30;;;;;;;;;;5029248;28;20072;-75
2022/07/10 03:54:34;;;;;;;6.50;2.88;;;;;;;;;;5033975;28;20038;-75
2022/07/10 03:59:45;;;;;;;8.15;2.60;;;;;;;;;;5020773;28;20053;-75
2022/07/10 04:02:11;;;;;;;3.67;2.33;;;;;;;;;;5021336;28;20049;-75
2022/07/10 04:04:37;;;;;;;8.95;2.55;;;;;;;;;;5057381;28;20537;-75
2022/07/10 04:07:04;;;;;;;5.18;2.60;;;;;;;;;;5024856;28;20095;-75
2022/07/10 04:09:30;;;;;;;6.35;2.70;;;;;;;;;;5017428;28;20104;-76
2022/07/10 04:11:56;;;;;;;8.48;2.60;;;;;;;;;;5019821;28;20155;-75
2022/07/10 04:14:22;;;;;;;9.25;2.72;;;;;;;;;;5047154;28;20049;-75
2022/07/10 04:16:49;;;;;;;6.90;2.40;;;;;;;;;;5057650;28;20045;-76
2022/07/10 04:19:15;;;;;;;6.93;2.67;;;;;;;;;;5020371;28;20100;-75
2022/07/10 04:21:41;;;;;;;6.95;2.50;;;;;;;;;;5016772;28;20050;-75
2022/07/10 04:24:07;;;;;;;5.47;2.40;;;;;;;;;;5021889;28;20429;-75
2022/07/10 04:26:33;;;;;;;5.00;2.20;;;;;;;;;;5028094;28;20050;-75
2022/07/10 04:28:59;;;;;;;6.22;2.58;;;;;;;;;;5028460;28;20041;-76
2022/07/10 04:31:25;;;;;;;6.68;2.60;;;;;;;;;;5029746;28;20064;-76
2022/07/10 04:33:51;;;;;;;4.25;2.15;;;;;;;;;;5018652;28;20037;-76
2022/07/10 04:36:18;;;;;;;6.68;2.58;;;;;;;;;;5021287;28;20440;-75
2022/07/10 04:38:44;;;;;;;7.70;2.70;;;;;;;;;;5016298;28;20092;-75
2022/07/10 04:41:10;;;;;;;8.00;2.72;;;;;;;;;;5016209;28;20543;-75
2022/07/10 04:43:36;;;;;;;7.22;2.42;;;;;;;;;;5026135;28;20053;-75
2022/07/10 04:46:02;;;;;;;4.88;2.58;;;;;;;;;;5054193;28;20041;-75
2022/07/10 04:48:28;;;;;;;8.13;2.63;;;;;;;;;;5017298;28;20485;-75
2022/07/10 04:50:54;;;;;;;4.90;2.30;;;;;;;;;;5010629;28;20052;-75
2022/07/10 04:53:20;;;;;;;6.22;2.20;;;;;;;;;;5015593;28;20049;-75
2022/07/10 04:55:46;;;;;;;3.95;2.30;;;;;;;;;;5017346;28;20056;-75
2022/07/10 04:58:12;;;;;;;3.80;1.90;;;;;;;;;;5028906;28;20049;-75
2022/07/10 05:00:38;;;;;;;4.93;2.20;;;;;;;;;;5023892;28;20045;-76
2022/07/10 05:03:07;;;;;;;3.88;2.00;;;;;;;;;;5048557;28;20464;-75
2022/07/10 05:05:33;;;;;;;3.42;1.90;;;;;;;;;;5032020;28;20050;-75
2022/07/10 05:08:00;;;;;;;6.32;2.20;;;;;;;;;;5020789;28;20121;-76
2022/07/10 05:10:27;;;;;;;4.32;2.15;;;;;;;;;;5022017;28;20080;-75
2022/07/10 05:12:53;;;;;;;6.53;2.78;;;;;;;;;;5023053;28;20037;-75
2022/07/10 05:15:19;;;;;;;5.45;2.58;;;;;;;;;;5032392;28;20048;-76
2022/07/10 05:17:45;;;;;;;5.50;2.40;;;;;;;;;;5035697;28;20038;-75
2022/07/10 05:20:11;;;;;;;8.65;2.65;;;;;;;;;;5031972;28;20045;-75
2022/07/10 05:22:37;;;;;;;5.32;2.50;;;;;;;;;;5028683;28;20128;-75
2022/07/10 05:25:03;;;;;;;6.03;2.78;;;;;;;;;;5022445;28;20081;-75
2022/07/10 05:27:29;;;;;;;5.63;2.53;;;;;;;;;;5032720;28;20072;-75
2022/07/10 05:29:55;;;;;;;6.85;2.70;;;;;;;;;;5065016;28;20485;-75
2022/07/10 05:32:21;;;;;;;6.10;2.60;;;;;;;;;;5033103;28;20053;-75
2022/07/10 05:34:47;;;;;;;6.22;2.40;;;;;;;;;;5042050;28;20037;-75
2022/07/10 05:37:13;;;;;;;5.72;2.10;;;;;;;;;;5040024;28;20059;-75
2022/07/10 05:39:39;;;;;;;5.82;2.38;;;;;;;;;;5037425;28;20040;-75
2022/07/10 05:42:05;;;;;;;4.25;2.00;;;;;;;;;;5035169;28;20049;-75
2022/07/10 05:44:31;;;;;;;5.95;2.30;;;;;;;;;;5029823;28;20137;-76
2022/07/10 05:46:57;;;;;;;7.53;2.47;;;;;;;;;;5034824;28;20048;-75
2022/07/10 05:49:23;;;;;;;4.78;2.30;;;;;;;;;;5033438;28;20057;-76
2022/07/10 05:51:49;;;;;;;7.95;2.47;;;;;;;;;;5032343;28;20049;-76
2022/07/10 05:54:15;;;;;;;5.43;2.42;;;;;;;;;;5034995;28;21846;-75
2022/07/10 05:56:41;;;;;;;4.70;2.30;;;;;;;;;;5045633;28;20056;-75
2022/07/10 05:59:07;;;;;;;5.32;2.20;;;;;;;;;;5037040;28;20041;-76
2022/07/10 06:01:33;;;;;;;5.50;2.22;;;;;;;;;;5037233;28;20058;-75
2022/07/10 06:04:00;;;;;;;4.53;2.25;;;;;;;;;;5033667;28;20041;-75
2022/07/10 06:06:26;;;;;;;5.85;2.45;;;;;;;;;;5026815;28;20080;-75
2022/07/10 06:08:52;;;;;;;2.72;1.98;;;;;;;;;;5032275;28;20049;-76
2022/07/10 06:11:18;;;;;;;5.07;2.42;;;;;;;;;;5027402;28;20045;-75
2022/07/10 06:13:44;;;;;;;5.72;2.00;;;;;;;;;;5054982;28;20055;-75
2022/07/10 06:16:10;;;;;;;4.30;2.00;;;;;;;;;;5036097;28;20101;-75
2022/07/10 06:18:36;;;;;;;7.00;2.22;;;;;;;;;;5030223;28;20057;-75
2022/07/10 06:21:02;;;;;;;6.18;2.45;;;;;;;;;;5021911;28;20049;-77
2022/07/10 06:23:28;;;;;;;5.40;2.28;;;;;;;;;;5018604;28;20041;-75
2022/07/10 06:25:54;;;;;;;6.15;2.42;;;;;;;;;;5023397;28;20128;-75
2022/07/10 06:28:21;;;;;;;4.38;2.15;;;;;;;;;;5018301;28;20147;-75
2022/07/10 06:30:47;;;;;;;2.95;1.90;;;;;;;;;;5034013;28;20045;-75
2022/07/10 06:33:13;;;;;;;4.50;2.20;;;;;;;;;;5054161;28;20465;-76
2022/07/10 06:35:39;;;;;;;4.20;2.00;;;;;;;;;;5012753;28;21800;-75
2022/07/10 06:38:05;;;;;;;5.13;2.15;;;;;;;;;;5027826;28;20187;-76
2022/07/10 06:40:35;;;;;;;5.78;2.20;;;;;;;;;;5020635;28;20054;-76
2022/07/10 06:43:01;;;;;;;4.68;2.00;;;;;;;;;;5026114;28;20048;-75
2022/07/10 06:45:27;;;;;;;4.75;2.15;;;;;;;;;;5029004;28;20053;-75
2022/07/10 06:47:56;;;;;;;6.15;2.00;;;;;;;;;;5027183;28;20090;-76
2022/07/10 06:50:22;;;;;;;3.80;2.00;;;;;;;;;;5028568;28;21581;-76
2022/07/10 06:52:49;;;;;;;4.80;2.28;;;;;;;;;;5016139;28;20056;-76
2022/07/10 06:55:15;;;;;;;7.30;2.20;;;;;;;;;;5023439;28;20053;-76
2022/07/10 06:57:41;;;;;;;3.78;2.30;;;;;;;;;;5026469;28;20128;-76
2022/07/10 07:00:09;;;;;;;5.15;1.98;;;;;;;;;;5029039;28;20089;-75
2022/07/10 07:02:35;;;;;;;4.07;2.03;;;;;;;;;;5061478;28;20049;-76
2022/07/10 07:05:02;;;;;;;6.65;1.92;;;;;;;;;;5030670;28;20049;-75
2022/07/10 07:07:28;;;;;;;6.28;1.80;;;;;;;;;;5020939;28;20069;-76
2022/07/10 07:09:57;;;;;;;6.15;2.20;;;;;;;;;;5020680;28;20400;-75
2022/07/10 07:12:23;;;;;;;5.85;2.10;;;;;;;;;;5027383;28;20183;-76
2022/07/10 07:14:49;;;;;;;6.25;2.40;;;;;;;;;;5023757;28;20046;-76
2022/07/10 07:17:21;;;;;;;8.65;2.13;;;;;;;;;;5016973;28;20049;-76
2022/07/10 07:25:17;;;;;;;3.42;2.00;;;;;;;;;;5047331;28;20387;-75
2022/07/10 07:27:43;;;;;;;3.97;1.90;;;;;;;;;;5012888;28;20068;-75
2022/07/10 07:30:10;;;;;;;6.65;1.98;;;;;;;;;;5039440;28;20057;-76
2022/07/10 07:32:37;;;;;;;4.15;2.08;;;;;;;;;;5032416;28;20049;-76
2022/07/10 07:35:03;;;;;;;4.85;1.80;;;;;;;;;;5039389;28;20103;-75
2022/07/10 07:37:45;;;;;;;2.60;1.80;;;;;;;;;;5043345;28;20045;-76
2022/07/10 07:40:13;;;;;;;6.47;2.10;;;;;;;;;;5041272;28;20041;-76
2022/07/10 07:42:39;;;;;;;3.08;1.70;;;;;;;;;;5032251;28;20489;-76
2022/07/10 07:45:05;;;;;;;3.50;1.90;;;;;;;;;;5036451;28;20033;-76
2022/07/10 07:47:32;;;;;;;4.28;2.33;;;;;;;;;;5034422;28;20052;-76
2022/07/10 07:50:03;;;;;;;4.13;2.00;;;;;;;;;;5035899;28;20132;-76
2022/07/10 07:52:31;;;;;;;5.32;2.33;;;;;;;;;;5060275;28;20045;-76
2022/07/10 07:54:57;;;;;;;4.70;2.20;;;;;;;;;;5055089;28;20053;-76
2022/07/10 07:57:23;;;;;;;4.35;2.08;;;;;;;;;;5030251;28;20067;-76
2022/07/10 07:59:49;;;;;;;4.75;2.08;;;;;;;;;;5034690;28;20369;-75
2022/07/10 08:02:15;;;;;;;4.72;2.13;;;;;;;;;;5041921;28;20056;-76
2022/07/10 08:04:41;;;;;;;5.47;1.90;;;;;;;;;;5030930;28;20171;-77
2022/07/10 08:07:07;;;;;;;6.28;2.33;;;;;;;;;;5025622;28;20042;-75
2022/07/10 08:09:33;;;;;;;4.15;2.22;;;;;;;;;;5024389;28;20045;-76
2022/07/10 08:11:59;;;;;;;5.60;2.13;;;;;;;;;;5028644;28;20359;-75
2022/07/10 08:14:25;;;;;;;6.40;2.30;;;;;;;;;;5026196;28;20044;-76
2022/07/10 08:16:51;;;;;;;6.78;2.60;;;;;;;;;;5025687;28;20050;-75
2022/07/10 08:19:17;;;;;;;4.05;2.08;;;;;;;;;;5031681;28;20037;-75
2022/07/10 08:21:43;;;;;;;4.35;2.20;;;;;;;;;;5023589;28;20085;-76
2022/07/10 08:24:09;;;;;;;5.47;2.25;;;;;;;;;;5031522;28;20118;-75
2022/07/10 08:26:35;;;;;;;5.15;2.33;;;;;;;;;;5021111;28;20056;-75
2022/07/10 08:29:01;;;;;;;4.43;2.20;;;;;;;;;;5039857;28;20045;-76
2022/07/10 08:31:37;;;;;;;5.05;2.25;;;;;;;;;;5031080;28;20128;-76
2022/07/10 08:34:03;;;;;;;6.03;2.47;;;;;;;;;;5036018;28;20527;-77
2022/07/10 08:36:29;;;;;;;6.97;2.40;;;;;;;;;;5024487;28;20045;-77
2022/07/10 08:38:55;;;;;;;5.75;2.45;;;;;;;;;;5023262;28;20030;-76
2022/07/10 08:41:25;;;;;;;5.53;2.10;;;;;;;;;;5025109;28;20405;-75
2022/07/10 08:43:51;;;;;;;3.72;2.00;;;;;;;;;;5059095;28;20475;-76
2022/07/10 08:46:18;;;;;;;4.32;2.00;;;;;;;;;;5024123;28;20045;-75
2022/07/10 08:48:47;;;;;;;3.55;1.92;;;;;;;;;;5036200;28;20136;-74
2022/07/10 08:51:17;;;;;;;5.32;2.30;;;;;;;;;;5031791;28;20045;-76
2022/07/10 08:53:44;;;;;;;4.20;2.10;;;;;;;;;;5027710;28;20052;-75
2022/07/10 08:56:10;;;;;;;4.93;2.58;;;;;;;;;;5027723;28;20049;-76
2022/07/10 08:58:37;;;;;;;6.13;2.50;;;;;;;;;;5055746;28;20063;-76
2022/07/10 09:01:03;;;;;;;3.38;1.90;;;;;;;;;;5031869;28;20049;-76
2022/07/10 09:03:31;;;;;;;3.53;1.98;;;;;;;;;;5036977;28;20040;-75
2022/07/10 09:05:57;;;;;;;4.20;2.05;;;;;;;;;;5031117;28;20049;-75
2022/07/10 09:08:24;;;;;;;5.07;1.95;;;;;;;;;;5027283;28;20100;-74
2022/07/10 09:10:50;;;;;;;4.43;2.13;;;;;;;;;;5027899;28;20436;-75
2022/07/10 09:13:17;;;;;;;5.05;2.00;;;;;;;;;;5028926;28;20052;-75
2022/07/10 09:15:48;;;;;;;3.83;1.90;;;;;;;;;;5054124;28;20069;-75
2022/07/10 09:18:18;;;;;;;3.65;1.90;;;;;;;;;;5032399;28;20055;-75
2022/07/10 09:20:46;;;;;;;4.70;2.22;;;;;;;;;;5021873;28;20049;-75
2022/07/10 09:23:19;;;;;;;2.33;1.60;;;;;;;;;;5025298;28;20041;-75
2022/07/10 09:25:47;;;;;;;5.80;1.85;;;;;;;;;;5056455;28;20045;-75
2022/07/10 09:28:14;;;;;;;3.03;1.73;;;;;;;;;;5020219;28;20056;-75
2022/07/10 09:30:41;;;;;;;3.15;1.70;;;;;;;;;;5029010;28;20053;-75
2022/07/10 09:33:19;;;;;;;8.88;3.38;;;;;;;;;;5032509;28;20045;-75
2022/07/10 09:36:04;;;;;;;4.65;2.10;;;;;;;;;;5023901;28;20049;-75
2022/07/10 09:38:42;;;;;;;7.20;3.83;;;;;;;;;;5026847;28;20045;-76
2022/07/10 09:41:14;;;;;;;3.42;1.85;;;;;;;;;;5030577;28;20489;-76
2022/07/10 09:43:45;;;;;;;2.97;2.20;;;;;;;;;;5025497;28;20046;-75
2022/07/10 09:46:11;;;;;;;4.60;2.13;;;;;;;;;;5032973;28;20104;-75
2022/07/10 09:48:37;;;;;;;4.15;1.90;;;;;;;;;;5029506;28;20483;-75
2022/07/10 09:51:04;;;;;;;2.75;1.95;;;;;;;;;;5032925;28;20061;-75
2022/07/10 09:53:31;;;;;;;4.93;2.10;;;;;;;;;;5030230;28;20073;-74
2022/07/10 09:55:57;;;;;;;3.05;1.90;;;;;;;;;;5030409;28;20056;-76
2022/07/10 09:58:26;;;;;;;3.65;2.00;;;;;;;;;;5030416;28;20045;-76
2022/07/10 10:00:53;;;;;;;3.20;1.85;;;;;;;;;;5030997;28;20053;-76
2022/07/10 10:03:20;;;;;;;3.53;1.88;;;;;;;;;;5027021;28;20060;-76
2022/07/10 10:05:52;;;;;;;2.55;1.77;;;;;;;;;;5026417;28;20041;-75
2022/07/10 10:08:25;;;;;;;2.38;1.80;;;;;;;;;;5028410;28;20045;-76
2022/07/10 10:10:52;;;;;;;5.25;2.05;;;;;;;;;;5061072;28;20068;-75
2022/07/10 10:13:22;;;;;;;3.17;1.80;;;;;;;;;;5035874;28;20059;-75
2022/07/10 10:15:48;;;;;;;4.93;1.90;;;;;;;;;;5029657;28;20087;-75
2022/07/10 10:18:22;;;;;;;3.22;2.03;;;;;;;;;;5029606;28;20091;-76
2022/07/10 10:20:49;;;;;;;2.65;1.80;;;;;;;;;;5026929;28;20046;-76
2022/07/10 10:23:17;;;;;;;5.38;2.13;;;;;;;;;;5031039;28;20041;-76
2022/07/10 10:25:44;;;;;;;3.85;1.90;;;;;;;;;;5030107;28;20050;-76
2022/07/10 10:28:11;;;;;;;3.75;1.70;;;;;;;;;;5030545;28;20060;-76
2022/07/10 10:30:39;;;;;;;4.60;1.80;;;;;;;;;;5029741;28;20099;-76
2022/07/10 10:33:25;;;;;;;4.25;1.88;;;;;;;;;;5028502;28;20049;-76
2022/07/10 10:35:51;;;;;;;2.60;1.60;;;;;;;;;;5029701;28;20044;-76
2022/07/10 10:38:17;;;;;;;3.30;1.92;;;;;;;;;;5027376;28;20053;-75
2022/07/10 10:40:55;;;;;;;3.20;1.70;;;;;;;;;;5024022;28;20444;-75
2022/07/10 10:43:23;;;;;;;3.95;2.03;;;;;;;;;;5025936;28;20045;-75
2022/07/10 10:45:49;;;;;;;3.42;2.00;;;;;;;;;;5022612;28;20050;-75
2022/07/10 10:48:16;;;;;;;2.22;1.60;;;;;;;;;;5022569;28;20045;-74
2022/07/10 10:50:45;;;;;;;2.30;1.75;;;;;;;;;;5024828;28;20041;-74
2022/07/10 10:53:17;;;;;;;4.22;2.00;;;;;;;;;;5026666;28;20564;-74
2022/07/10 10:56:21;;;;;;;4.30;2.00;;;;;;;;;;5025010;28;20046;-75
2022/07/10 10:58:47;;;;;;;4.07;2.00;;;;;;;;;;5023370;28;20067;-74
2022/07/10 11:01:28;;;;;;;4.18;1.90;;;;;;;;;;5026782;28;20077;-74
2022/07/10 11:04:09;;;;;;;5.03;3.47;;;;;;;;;;5029388;28;20132;-74
2022/07/10 11:06:44;;;;;;;3.25;1.90;;;;;;;;;;5027391;28;20046;-74
2022/07/10 11:09:22;;;;;;;3.72;1.92;;;;;;;;;;5019374;28;20045;-74
2022/07/10 11:12:00;;;;;;;5.15;2.00;;;;;;;;;;5027437;28;20042;-75
2022/07/10 11:14:28;;;;;;;4.50;2.00;;;;;;;;;;5027749;28;20072;-74
2022/07/10 11:16:57;;;;;;;3.58;1.98;;;;;;;;;;5048768;28;20053;-74
2022/07/10 11:19:25;;;;;;;2.22;1.85;;;;;;;;;;5026415;28;20049;-74
2022/07/10 11:21:56;;;;;;;2.05;1.65;;;;;;;;;;5026554;28;20041;-74
2022/07/10 11:24:22;;;;;;;3.33;1.73;;;;;;;;;;5026644;28;20080;-75
2022/07/10 11:26:51;;;;;;;5.68;1.85;;;;;;;;;;5024416;28;20049;-74
2022/07/10 11:29:18;;;;;;;2.47;1.75;;;;;;;;;;5023038;28;20057;-74
2022/07/10 11:31:52;;;;;;;3.05;1.73;;;;;;;;;;5028227;28;20519;-74
2022/07/10 11:34:18;;;;;;;1.85;1.70;;;;;;;;;;5018399;28;20420;-75
2022/07/10 11:36:44;;;;;;;3.15;1.60;;;;;;;;;;5026811;28;20535;-75
2022/07/10 11:39:12;;;;;;;5.00;2.10;;;;;;;;;;5022920;28;20128;-75
2022/07/10 11:41:45;;;;;;;2.80;1.80;;;;;;;;;;5021941;28;20570;-75
2022/07/10 11:44:11;;;;;;;;;;;;;;;;;;5056346;28;20053;-75
2022/07/10 11:46:38;;;;;;;2.95;1.65;;;;;;;;;;5028482;28;19921;-75
2022/07/10 11:49:05;;;;;;;3.10;1.98;;;;;;;;;;5024217;28;20061;-75
2022/07/10 11:51:36;;;;;;;3.92;2.00;;;;;;;;;;5022667;28;20049;-76
2022/07/10 11:54:17;;;;;;;3.15;1.73;;;;;;;;;;5026220;28;20499;-75
2022/07/10 11:56:48;;;;;;;2.50;1.63;;;;;;;;;;5026374;28;20203;-75
2022/07/10 11:59:15;;;;;;;4.18;1.85;;;;;;;;;;5028280;28;20042;-75
2022/07/10 12:01:48;;;;;;;3.65;2.00;;;;;;;;;;5027815;28;20049;-80
2022/07/10 12:04:14;;;;;;;;;;;;;;;;;;5023010;28;20389;-79
2022/07/10 12:06:44;;;;;;;3.83;1.98;;;;;;;;;;5024913;28;19927;-81
2022/07/10 12:09:12;;;;;;;3.17;1.92;;;;;;;;;;5028996;28;20045;-74
2022/07/10 12:11:38;;;;;;;4.95;2.17;;;;;;;;;;5026497;28;20049;-75
2022/07/10 12:14:14;;;;;;;3.65;1.88;;;;;;;;;;5021028;28;20049;-73
2022/07/10 12:16:42;;;;;;;2.70;1.80;;;;;;;;;;5052028;28;20054;-73
2022/07/10 12:19:08;;;;;;;4.03;1.90;;;;;;;;;;5022209;28;20072;-73
2022/07/10 12:21:35;;;;;;;4.68;1.83;;;;;;;;;;5020368;28;20046;-72
2022/07/10 12:24:02;;;;;;;3.13;1.90;;;;;;;;;;5023629;28;20037;-72
2022/07/10 12:26:32;;;;;;;3.55;2.10;;;;;;;;;;5019620;28;20056;-73
2022/07/10 12:28:59;;;;;;;3.92;1.77;;;;;;;;;;5027523;28;20099;-73
2022/07/10 12:31:31;;;;;;;2.60;1.88;;;;;;;;;;5017983;28;20184;-72
2022/07/10 12:34:02;;;;;;;5.20;2.15;;;;;;;;;;5032238;28;20480;-73
2022/07/10 12:36:47;;;;;;;2.45;1.70;;;;;;;;;;5014259;28;20055;-72
2022/07/10 12:39:22;;;;;;;3.60;1.70;;;;;;;;;;5023013;28;20156;-72
2022/07/10 12:42:02;;;;;;;3.38;1.95;;;;;;;;;;5019027;28;20136;-72
2022/07/10 12:44:35;;;;;;;5.40;1.92;;;;;;;;;;5026375;28;20081;-72
2022/07/10 12:47:14;;;;;;;3.42;1.90;;;;;;;;;;5024229;28;20037;-72
2022/07/10 12:49:55;;;;;;;3.35;2.60;;;;;;;;;;5057490;28;20049;-73
2022/07/10 12:52:31;;;;;;;3.53;1.92;;;;;;;;;;5016998;28;20100;-73
2022/07/10 12:55:16;;;;;;;4.00;1.98;;;;;;;;;;5019105;28;20386;-73
2022/07/10 12:57:52;;;;;;;3.13;2.10;;;;;;;;;;5021667;28;20056;-73
2022/07/10 13:00:19;;;;;;;2.63;1.90;;;;;;;;;;5053762;28;20493;-73
2022/07/10 13:02:49;;;;;;;3.38;1.98;;;;;;;;;;5022293;28;20119;-73
2022/07/10 13:05:25;;;;;;;3.47;2.00;;;;;;;;;;5025882;28;20150;-72
2022/07/10 13:07:51;;;;;;;2.83;1.80;;;;;;;;;;5017113;28;20073;-72
2022/07/10 13:10:17;;;;;;;3.55;2.05;;;;;;;;;;5020135;28;20159;-73
2022/07/10 13:12:43;;;;;;;2.20;2.00;;;;;;;;;;5026862;28;20164;-72
2022/07/10 13:15:09;;;;;;;5.15;2.22;;;;;;;;;;5021350;28;20049;-73
2022/07/10 13:17:43;;;;;;;4.63;2.08;;;;;;;;;;5016423;28;20082;-73
2022/07/10 13:20:09;;;;;;;3.58;2.20;;;;;;;;;;5017187;28;20054;-73
2022/07/10 13:22:35;;;;;;;4.88;2.05;;;;;;;;;;5018729;28;20053;-72
2022/07/10 13:25:02;;;;;;;3.80;2.05;;;;;;;;;;5024777;28;20046;-75
2022/07/10 13:27:28;;;;;;;3.53;2.08;;;;;;;;;;5025006;28;20092;-73
2022/07/10 13:29:54;;;;;;;4.10;2.13;;;;;;;;;;5017725;28;20054;-74
2022/07/10 13:32:20;;;;;;;2.65;1.98;;;;;;;;;;5015713;28;20061;-73
2022/07/10 13:34:46;;;;;;;4.68;2.20;;;;;;;;;;5026409;28;20048;-73
2022/07/10 13:37:14;;;;;;;3.55;2.15;;;;;;;;;;5022192;28;20045;-74
2022/07/10 13:39:40;;;;;;;4.13;2.30;;;;;;;;;;5034505;28;20041;-74
2022/07/10 13:42:06;;;;;;;5.13;2.20;;;;;;;;;;5027281;28;20489;-73
2022/07/10 13:44:32;;;;;;;5.43;2.10;;;;;;;;;;5025121;28;20045;-74
2022/07/10 13:46:58;;;;;;;3.17;2.10;;;;;;;;;;5020816;28;20038;-74
2022/07/10 13:49:27;;;;;;;5.38;1.85;;;;;;;;;;5023641;28;20055;-74
2022/07/10 13:51:53;;;;;;;3.33;1.98;;;;;;;;;;5017511;28;20042;-73
2022/07/10 13:54:19;;;;;;;3.58;2.03;;;;;;;;;;5031626;28;20486;-74
2022/07/10 13:56:45;;;;;;;3.78;2.17;;;;;;;;;;5020104;28;20125;-74
2022/07/10 13:59:11;;;;;;;3.90;2.17;;;;;;;;;;5025906;28;20045;-74
2022/07/10 14:01:37;;;;;;;3.85;2.30;;;;;;;;;;5022996;28;20052;-74
2022/07/10 14:04:03;;;;;;;5.75;2.22;;;;;;;;;;5027650;28;20038;-73
2022/07/10 14:06:29;;;;;;;3.72;2.28;;;;;;;;;;5024323;28;20051;-73
2022/07/10 14:08:55;;;;;;;5.50;2.40;;;;;;;;;;5024357;28;20466;-73
2022/07/10 14:11:21;;;;;;;6.32;3.20;;;;;;;;;;5030336;28;20049;-74
2022/07/10 14:13:47;;;;;;;5.65;2.70;;;;;;;;;;5033417;28;20041;-73
2022/07/10 14:16:14;;;;;;;4.75;2.50;;;;;;;;;;5025270;28;20068;-74
2022/07/10 14:18:44;;;;;;;4.53;2.50;;;;;;;;;;5024129;28;20096;-74